Time;durP1;ratioP1;P1;durP2;ratioP2;P2;SDS_P1;SDS_P2;PMS_P1;PMS_P2;Temp;Humidity;BMP_temperature;BMP_pressure;BME280_temperature;BME280_humidity;BME280_pressure;Samples;Min_cycle;Max_cycle;Signal;HPM_P1;HPM_P2
2022/03/15 00:01:08;;;;;;;18.65;7.78;;;;;;;5.54;80.20;102404.50;5106678;28;20075;-75
2022/03/15 00:03:35;;;;;;;15.75;8.73;;;;;;;5.36;80.33;102397.63;5108404;27;20101;-75
2022/03/15 00:06:02;;;;;;;14.13;8.35;;;;;;;4.79;84.25;102396.94;5108569;27;20514;-75
2022/03/15 00:08:28;;;;;;;21.73;11.07;;;;;;;4.36;89.05;102405.63;5109110;28;20054;-75
2022/03/15 00:10:58;;;;;;;26.35;12.35;;;;;;;4.39;90.55;102401.28;5103982;28;20734;-75
2022/03/15 00:13:28;;;;;;;22.63;9.65;;;;;;;5.17;86.84;102406.38;5105639;28;20043;-75
2022/03/15 00:15:56;;;;;;;20.83;10.13;;;;;;;5.46;83.74;102411.47;5084913;28;20048;-76
2022/03/15 00:18:23;;;;;;;26.92;11.48;;;;;;;4.95;85.51;102402.97;5075058;28;20145;-75
2022/03/15 00:20:49;;;;;;;26.13;11.38;;;;;;;5.28;84.69;102392.44;5085823;28;20087;-76
2022/03/15 00:23:16;;;;;;;26.65;12.15;;;;;;;5.72;83.52;102391.41;5088195;28;20047;-75
2022/03/15 00:25:43;;;;;;;35.67;13.15;;;;;;;6.07;83.20;102396.41;5086361;28;20066;-74
2022/03/15 00:28:09;;;;;;;37.55;14.48;;;;;;;6.27;84.12;102397.13;5072439;28;20051;-74
2022/03/15 00:30:35;;;;;;;39.40;14.57;;;;;;;6.27;85.50;102395.41;5085741;28;20113;-73
2022/03/15 00:33:03;;;;;;;35.15;14.05;;;;;;;6.56;84.65;102400.38;5087106;28;20567;-72
2022/03/15 00:35:31;;;;;;;40.63;14.75;;;;;;;6.60;84.32;102406.41;5086288;28;20047;-72
2022/03/15 00:37:57;;;;;;;34.35;14.35;;;;;;;6.51;84.56;102409.97;5082884;28;20056;-71
2022/03/15 00:40:25;;;;;;;41.50;15.63;;;;;;;6.36;85.29;102410.94;5100598;28;20064;-71
2022/03/15 00:42:52;;;;;;;33.42;14.43;;;;;;;6.64;84.49;102401.16;5082812;28;20053;-71
2022/03/15 00:45:22;;;;;;;30.35;13.57;;;;;;;6.87;82.50;102402.69;5067368;28;20052;-71
2022/03/15 00:47:49;;;;;;;33.05;12.80;;;;;;;7.09;81.08;102410.28;5085423;28;20056;-71
2022/03/15 00:50:17;;;;;;;30.23;13.27;;;;;;;7.21;80.56;102414.47;5086604;28;20075;-72
2022/03/15 00:52:44;;;;;;;35.38;12.80;;;;;;;7.25;80.14;102410.97;5083756;28;20556;-71
2022/03/15 00:55:10;;;;;;;37.75;13.68;;;;;;;7.08;80.79;102410.28;5087568;28;20440;-72
2022/03/15 00:57:37;;;;;;;28.50;13.90;;;;;;;6.88;81.25;102415.69;5086065;28;20474;-72
2022/03/15 01:00:05;;;;;;;28.98;13.20;;;;;;;6.93;81.02;102418.28;5078688;28;20075;-72
2022/03/15 01:02:32;;;;;;;30.92;12.90;;;;;;;7.07;80.18;102416.38;5086539;28;20085;-72
2022/03/15 01:04:58;;;;;;;31.65;13.32;;;;;;;7.21;79.20;102415.34;5087128;28;20059;-72
2022/03/15 01:07:26;;;;;;;27.70;12.93;;;;;;;7.33;77.99;102423.03;5107032;28;20075;-71
2022/03/15 01:09:52;;;;;;;31.83;12.10;;;;;;;7.11;78.65;102418.94;5104376;27;20453;-72
2022/03/15 01:12:19;;;;;;;32.05;14.07;;;;;;;6.59;80.92;102421.19;5106544;28;20078;-72
2022/03/15 01:14:45;;;;;;;34.08;13.45;;;;;;;6.39;82.31;102430.06;5101824;27;20051;-72
2022/03/15 01:17:12;;;;;;;29.77;12.85;;;;;;;6.51;80.44;102432.53;5098820;28;20104;-72
2022/03/15 01:19:38;;;;;;;27.60;12.25;;;;;;;5.99;80.98;102445.06;5105465;27;20144;-72
2022/03/15 01:22:05;;;;;;;29.77;12.75;;;;;;;6.32;80.26;102434.41;5106214;28;20081;-72
2022/03/15 01:24:33;;;;;;;36.25;12.00;;;;;;;6.82;78.25;102440.09;5107196;27;20120;-72
2022/03/15 01:26:59;;;;;;;29.38;13.55;;;;;;;6.85;78.27;102432.25;5106973;27;20067;-72
2022/03/15 01:29:26;;;;;;;24.80;11.57;;;;;;;6.25;79.05;102428.41;5106088;28;20051;-72
2022/03/15 01:31:53;;;;;;;27.73;12.00;;;;;;;6.09;79.71;102447.63;5086280;28;20055;-72
2022/03/15 01:34:20;;;;;;;25.88;12.25;;;;;;;6.47;78.44;102449.09;5086427;28;20040;-73
2022/03/15 01:36:46;;;;;;;29.88;12.25;;;;;;;6.68;78.10;102449.78;5084662;28;20066;-73
2022/03/15 01:39:13;;;;;;;34.10;13.20;;;;;;;7.00;77.18;102443.41;5081764;28;20057;-72
2022/03/15 01:41:41;;;;;;;30.35;12.50;;;;;;;6.80;77.87;102447.06;5079833;28;20121;-73
2022/03/15 01:44:14;;;;;;;30.60;12.70;;;;;;;6.86;78.19;102443.53;5088477;28;20048;-72
2022/03/15 01:46:41;;;;;;;34.03;13.05;;;;;;;6.65;78.73;102444.59;5097304;28;20540;-72
2022/03/15 01:49:07;;;;;;;30.65;13.20;;;;;;;6.75;78.22;102446.25;5094547;28;20072;-72
2022/03/15 01:51:34;;;;;;;29.92;13.10;;;;;;;6.68;78.25;102444.59;5088215;28;20455;-72
2022/03/15 01:54:00;;;;;;;32.08;13.30;;;;;;;6.73;78.57;102447.13;5087349;28;20070;-72
2022/03/15 01:56:26;;;;;;;32.30;13.43;;;;;;;6.79;78.11;102441.88;5087661;28;20067;-72
2022/03/15 01:58:54;;;;;;;32.53;12.68;;;;;;;6.70;77.84;102442.81;5087770;28;20133;-72
2022/03/15 02:01:20;;;;;;;31.05;12.50;;;;;;;6.83;77.23;102441.84;5079413;28;20122;-72
2022/03/15 02:03:46;;;;;;;31.05;13.07;;;;;;;6.57;78.27;102446.41;5080263;28;20090;-72
2022/03/15 02:06:13;;;;;;;28.58;12.70;;;;;;;6.46;78.56;102447.38;5085384;28;20063;-72
2022/03/15 02:08:39;;;;;;;25.25;12.68;;;;;;;6.34;77.26;102443.97;5091174;28;20450;-72
2022/03/15 02:11:08;;;;;;;29.67;12.00;;;;;;;6.44;77.01;102457.78;5086417;28;20243;-72
2022/03/15 02:13:35;;;;;;;32.72;13.18;;;;;;;6.38;77.83;102449.16;5092157;28;20131;-72
2022/03/15 02:16:02;;;;;;;28.50;13.15;;;;;;;6.31;78.91;102450.94;5091691;28;20097;-72
2022/03/15 02:18:29;;;;;;;41.75;14.05;;;;;;;6.21;79.60;102462.28;5093867;28;20085;-72
2022/03/15 02:20:56;;;;;;;37.45;12.50;;;;;;;6.18;79.92;102449.28;5090960;28;20050;-72
2022/03/15 02:23:23;;;;;;;38.20;14.23;;;;;;;5.90;80.32;102450.34;5093037;28;20048;-72
2022/03/15 02:25:49;;;;;;;32.08;13.27;;;;;;;5.81;81.06;102452.06;5092440;28;20113;-72
2022/03/15 02:28:15;;;;;;;33.08;13.60;;;;;;;6.06;80.32;102445.00;5090901;28;20500;-72
2022/03/15 02:30:41;;;;;;;37.65;13.20;;;;;;;6.12;79.75;102446.72;5083840;28;20068;-72
2022/03/15 02:33:08;;;;;;;31.85;13.68;;;;;;;6.13;79.91;102451.06;5084866;28;20076;-72
2022/03/15 02:35:34;;;;;;;37.45;14.63;;;;;;;5.77;80.64;102445.16;5082462;28;20048;-72
2022/03/15 02:38:02;;;;;;;36.55;14.98;;;;;;;5.06;83.53;102441.94;5091944;28;20068;-72
2022/03/15 02:40:28;;;;;;;34.60;13.02;;;;;;;5.37;83.29;102444.44;5090625;28;20106;-72
2022/03/15 02:42:55;;;;;;;35.42;13.35;;;;;;;5.64;81.36;102427.88;5105142;28;20043;-72
2022/03/15 02:45:22;;;;;;;35.38;14.45;;;;;;;4.92;84.34;102426.34;5108595;28;20552;-72
2022/03/15 02:47:49;;;;;;;35.33;13.93;;;;;;;5.18;83.74;102423.69;5092709;28;20520;-72
2022/03/15 02:50:15;;;;;;;36.33;14.65;;;;;;;5.45;82.49;102426.22;5091739;28;20074;-73
2022/03/15 02:52:41;;;;;;;30.73;12.48;;;;;;;5.61;81.87;102440.03;5092352;28;20109;-72
2022/03/15 02:55:10;;;;;;;40.40;16.10;;;;;;;5.19;83.47;102428.91;5108132;28;20063;-72
2022/03/15 02:57:36;;;;;;;44.92;15.25;;;;;;;5.39;83.13;102429.69;5096705;28;20092;-72
2022/03/15 03:00:03;;;;;;;38.00;15.32;;;;;;;5.67;82.28;102424.38;5111398;28;20089;-72
2022/03/15 03:02:29;;;;;;;34.88;13.35;;;;;;;5.87;81.27;102430.41;5113327;27;20096;-72
2022/03/15 03:04:56;;;;;;;31.27;14.40;;;;;;;5.83;80.42;102428.66;5111100;28;20063;-72
2022/03/15 03:07:22;;;;;;;28.70;13.15;;;;;;;5.50;80.88;102427.06;5112251;28;20040;-72
2022/03/15 03:09:49;;;;;;;29.92;12.32;;;;;;;5.38;80.91;102412.38;5111575;28;20062;-72
2022/03/15 03:12:16;;;;;;;26.15;12.43;;;;;;;5.44;79.97;102408.88;5112187;28;20044;-73
2022/03/15 03:14:45;;;;;;;29.38;11.65;;;;;;;5.36;79.06;102423.63;5090463;28;20549;-75
2022/03/15 03:17:12;;;;;;;25.45;10.95;;;;;;;5.12;77.17;102424.59;5091723;28;20060;-75
2022/03/15 03:19:39;;;;;;;22.63;10.73;;;;;;;4.66;77.87;102421.19;5091097;28;20093;-75
2022/03/15 03:22:05;;;;;;;31.25;13.18;;;;;;;3.87;82.29;102441.00;5108790;28;20047;-75
2022/03/15 03:24:31;;;;;;;35.72;13.10;;;;;;;3.63;86.10;102440.91;5099857;28;20044;-75
2022/03/15 03:27:00;;;;;;;29.90;11.60;;;;;;;4.40;82.71;102436.78;5081209;28;20045;-75
2022/03/15 03:29:29;;;;;;;27.58;11.85;;;;;;;4.66;80.35;102431.56;5088183;28;20481;-75
2022/03/15 03:31:56;;;;;;;31.55;11.85;;;;;;;4.47;80.24;102429.88;5107756;27;20385;-75
2022/03/15 03:34:23;;;;;;;22.60;10.82;;;;;;;4.55;79.09;102427.25;5110515;28;20039;-75
2022/03/15 03:36:49;;;;;;;28.90;12.60;;;;;;;4.63;79.74;102436.78;5094757;28;20044;-75
2022/03/15 03:39:16;;;;;;;32.10;13.45;;;;;;;5.40;79.41;102438.34;5110302;28;20081;-75
2022/03/15 03:41:42;;;;;;;39.78;14.30;;;;;;;5.63;79.63;102441.75;5119172;27;20046;-75
2022/03/15 03:44:09;;;;;;;33.97;13.23;;;;;;;5.78;79.49;102439.06;5106928;28;20048;-75
2022/03/15 03:46:36;;;;;;;31.25;13.02;;;;;;;5.73;78.40;102442.56;5108288;28;20040;-74
2022/03/15 03:49:03;;;;;;;37.60;13.45;;;;;;;5.34;80.28;102441.84;5110220;27;20055;-75
2022/03/15 03:51:29;;;;;;;35.20;13.48;;;;;;;5.52;78.49;102434.84;5107257;27;20481;-75
2022/03/15 03:53:55;;;;;;;29.42;11.93;;;;;;;4.91;79.27;102438.47;5111027;28;20043;-74
2022/03/15 03:56:22;;;;;;;29.30;12.55;;;;;;;4.72;79.89;102436.78;5111633;28;20479;-75
2022/03/15 03:58:48;;;;;;;30.20;12.65;;;;;;;4.90;79.20;102430.69;5110814;28;20419;-75
2022/03/15 04:01:15;;;;;;;28.30;11.88;;;;;;;4.60;78.71;102430.72;5110998;27;20047;-75
2022/03/15 04:03:42;;;;;;;21.52;9.65;;;;;;;4.77;78.25;102434.16;5111260;28;20419;-75
2022/03/15 04:06:09;;;;;;;21.85;9.55;;;;;;;4.43;78.68;102442.84;5111246;28;20055;-75
2022/03/15 04:08:35;;;;;;;21.58;10.20;;;;;;;4.17;80.32;102448.00;5111077;28;20050;-75
2022/03/15 04:11:02;;;;;;;28.10;11.35;;;;;;;4.30;80.60;102440.22;5110518;28;20120;-75
2022/03/15 04:13:28;;;;;;;24.83;10.63;;;;;;;4.01;80.78;102441.03;5109075;28;20491;-75
2022/03/15 04:15:54;;;;;;;26.67;11.05;;;;;;;3.47;82.58;102445.19;5110610;28;20448;-75
2022/03/15 04:18:21;;;;;;;31.95;12.15;;;;;;;3.13;85.85;102444.16;5110527;28;20568;-75
2022/03/15 04:20:49;;;;;;;29.23;12.32;;;;;;;3.39;85.04;102446.88;5110149;28;20461;-75
2022/03/15 04:23:15;;;;;;;27.88;11.07;;;;;;;3.75;83.45;102449.63;5110388;28;20047;-75
2022/03/15 04:25:42;;;;;;;26.55;11.65;;;;;;;3.85;81.78;102453.97;5110491;28;20051;-75
2022/03/15 04:28:08;;;;;;;29.05;11.38;;;;;;;4.24;79.97;102447.16;5105908;28;20117;-75
2022/03/15 04:30:35;;;;;;;30.17;11.98;;;;;;;4.37;79.37;102448.88;5090268;28;20125;-75
2022/03/15 04:33:02;;;;;;;23.80;11.55;;;;;;;4.09;80.31;102448.00;5090132;28;20044;-75
2022/03/15 04:35:29;;;;;;;28.80;11.02;;;;;;;4.09;79.38;102450.59;5090641;28;20036;-75
2022/03/15 04:37:57;;;;;;;27.17;11.77;;;;;;;4.05;78.90;102450.56;5089943;28;20044;-75
2022/03/15 04:40:23;;;;;;;26.15;10.63;;;;;;;3.77;79.86;102450.47;5088971;28;20458;-75
2022/03/15 04:42:50;;;;;;;25.60;11.30;;;;;;;3.77;79.69;102442.69;5086890;28;20056;-74
2022/03/15 04:45:17;;;;;;;21.63;11.02;;;;;;;3.59;79.81;102441.75;5091253;28;20055;-75
2022/03/15 04:47:43;;;;;;;23.23;10.60;;;;;;;3.56;80.42;102441.75;5087974;28;20105;-75
2022/03/15 04:50:11;;;;;;;23.60;10.18;;;;;;;3.26;81.59;102435.56;5086711;28;20040;-75
2022/03/15 04:52:37;;;;;;;30.67;12.48;;;;;;;3.09;84.08;102434.63;5086862;28;20052;-75
2022/03/15 04:55:06;;;;;;;29.65;12.48;;;;;;;3.39;83.61;102436.50;5087523;28;20172;-75
2022/03/15 04:57:33;;;;;;;28.67;11.52;;;;;;;3.74;81.48;102436.63;5087169;28;20036;-75
2022/03/15 05:00:00;;;;;;;30.30;11.52;;;;;;;3.79;81.11;102442.72;5080309;28;20108;-75
2022/03/15 05:02:27;;;;;;;24.10;11.32;;;;;;;3.90;80.03;102435.81;5100926;28;20066;-75
2022/03/15 05:04:53;;;;;;;32.38;11.93;;;;;;;3.57;81.90;102423.63;5107077;28;20046;-75
2022/03/15 05:07:20;;;;;;;27.35;12.43;;;;;;;3.87;81.66;102425.44;5106943;28;20552;-75
2022/03/15 05:12:28;;;;;;;28.10;10.65;;;;;;;4.04;79.46;102423.75;5066314;28;20052;-75
2022/03/15 05:14:55;;;;;;;24.42;10.05;;;;;;;4.11;78.13;102422.88;5085849;28;20420;-75
2022/03/15 05:17:22;;;;;;;24.27;10.65;;;;;;;3.71;78.04;102419.34;5084443;28;20105;-75
2022/03/15 05:19:49;;;;;;;23.20;10.27;;;;;;;3.36;79.82;102420.94;5068921;28;20036;-75
2022/03/15 05:22:16;;;;;;;24.05;10.70;;;;;;;3.24;80.90;102419.16;5069007;28;20509;-75
2022/03/15 05:24:43;;;;;;;23.23;10.95;;;;;;;3.42;80.67;102419.25;5069204;28;20041;-75
2022/03/15 05:27:11;;;;;;;23.95;10.48;;;;;;;3.51;80.98;102420.97;5090652;28;20081;-75
2022/03/15 05:29:39;;;;;;;27.90;11.20;;;;;;;3.63;80.75;102413.25;5090178;28;20523;-71
2022/03/15 05:32:06;;;;;;;25.13;10.70;;;;;;;3.47;80.17;102413.22;5089413;28;20149;-71
2022/03/15 05:34:32;;;;;;;22.73;10.43;;;;;;;3.08;80.15;102414.72;5089548;28;20644;-71
2022/03/15 05:36:58;;;;;;;26.55;10.93;;;;;;;3.01;82.64;102418.16;5089433;28;20494;-71
2022/03/15 05:39:25;;;;;;;22.95;10.65;;;;;;;3.34;81.83;102407.09;5087779;28;20059;-71
2022/03/15 05:41:51;;;;;;;24.27;10.95;;;;;;;3.55;80.97;102412.34;5087166;28;20070;-71
2022/03/15 05:44:17;;;;;;;27.75;11.43;;;;;;;3.68;80.68;102408.97;5068853;28;20064;-71
2022/03/15 05:46:45;;;;;;;25.38;10.73;;;;;;;3.85;79.74;102411.59;5077815;28;20530;-71
2022/03/15 05:49:11;;;;;;;23.55;10.13;;;;;;;4.03;78.91;102419.41;5090373;28;20070;-71
2022/03/15 05:51:38;;;;;;;24.08;10.20;;;;;;;4.14;78.19;102414.25;5089349;28;20040;-71
2022/03/15 05:54:05;;;;;;;23.58;9.30;;;;;;;3.95;77.81;102420.28;5088828;28;20047;-71
2022/03/15 05:56:34;;;;;;;22.77;9.45;;;;;;;3.89;77.90;102421.13;5088305;28;20071;-71
2022/03/15 05:59:00;;;;;;;22.83;10.27;;;;;;;4.20;77.32;102427.25;5088113;28;20427;-72
2022/03/15 06:01:27;;;;;;;25.02;10.77;;;;;;;3.98;78.55;102426.34;5088554;28;20064;-72
2022/03/15 06:03:54;;;;;;;30.27;10.70;;;;;;;4.11;78.58;102427.22;5088813;28;20044;-72
2022/03/15 06:06:21;;;;;;;23.80;10.88;;;;;;;4.30;78.33;102419.47;5089217;28;20062;-72
2022/03/15 06:08:48;;;;;;;27.85;12.13;;;;;;;3.85;79.76;102422.84;5070296;28;20094;-72
2022/03/15 06:11:16;;;;;;;25.75;11.38;;;;;;;4.12;80.45;102432.41;5092587;28;20055;-72
2022/03/15 06:13:42;;;;;;;26.90;12.30;;;;;;;4.54;78.67;102426.41;5085322;28;20519;-72
2022/03/15 06:16:09;;;;;;;27.90;11.85;;;;;;;4.36;79.08;102421.22;5087892;28;20068;-71
2022/03/15 06:18:35;;;;;;;23.10;11.32;;;;;;;4.55;78.93;102412.53;5088886;28;20120;-71
2022/03/15 06:21:03;;;;;;;27.77;12.23;;;;;;;4.66;78.89;102413.38;5088212;28;20064;-71
2022/03/15 06:23:30;;;;;;;24.40;10.90;;;;;;;4.87;79.52;102422.91;5088425;28;20630;-71
2022/03/15 06:25:56;;;;;;;34.47;13.32;;;;;;;4.95;79.42;102430.69;5088857;28;20048;-72
2022/03/15 06:28:23;;;;;;;30.65;12.98;;;;;;;4.99;79.46;102438.47;5088509;28;20151;-71
2022/03/15 06:30:49;;;;;;;33.03;14.20;;;;;;;4.61;82.53;102435.94;5085894;28;20098;-71
2022/03/15 06:33:15;;;;;;;26.65;12.20;;;;;;;5.22;80.17;102428.88;5069634;28;20076;-71
2022/03/15 06:35:42;;;;;;;31.20;15.13;;;;;;;5.20;80.08;102429.78;5088369;28;20109;-71
2022/03/15 06:38:11;;;;;;;33.20;14.55;;;;;;;4.94;82.39;102436.75;5088300;28;20131;-71
2022/03/15 06:40:41;;;;;;;31.83;15.35;;;;;;;5.03;81.61;102439.31;5087746;28;20516;-71
2022/03/15 06:43:09;;;;;;;33.58;14.38;;;;;;;4.73;82.74;102446.28;5088408;28;20638;-70
2022/03/15 06:45:35;;;;;;;31.15;14.50;;;;;;;5.26;81.54;102446.22;5088382;28;20127;-67
2022/03/15 06:48:02;;;;;;;29.70;14.30;;;;;;;5.53;80.13;102449.59;5088273;28;20040;-67
2022/03/15 06:50:29;;;;;;;27.95;14.25;;;;;;;5.56;79.26;102444.38;5108140;28;20039;-66
2022/03/15 06:52:55;;;;;;;25.25;13.00;;;;;;;5.13;81.08;102441.06;5108314;27;20047;-66
2022/03/15 06:55:23;;;;;;;28.95;13.63;;;;;;;5.11;82.41;102440.19;5112121;28;20132;-66
2022/03/15 06:57:49;;;;;;;28.17;12.85;;;;;;;5.66;80.80;102443.47;5112192;28;20067;-66
2022/03/15 07:00:16;;;;;;;28.05;13.63;;;;;;;6.12;79.42;102441.53;5111784;27;20059;-66
2022/03/15 07:02:43;;;;;;;28.90;13.23;;;;;;;6.22;78.85;102432.75;5110978;28;20508;-66
2022/03/15 07:05:10;;;;;;;23.95;12.60;;;;;;;5.82;79.49;102438.19;5108988;27;20139;-66
2022/03/15 07:07:37;;;;;;;23.30;11.95;;;;;;;5.86;80.71;102434.72;5112598;27;20085;-66
2022/03/15 07:10:06;;;;;;;25.90;12.30;;;;;;;6.20;80.09;102426.72;5111022;28;20047;-65
2022/03/15 07:12:33;;;;;;;25.83;13.68;;;;;;;6.81;78.16;102427.94;5112120;28;20415;-65
2022/03/15 07:15:00;;;;;;;24.58;12.65;;;;;;;6.90;78.04;102431.34;5111808;28;20070;-65
2022/03/15 07:17:27;;;;;;;26.45;13.15;;;;;;;7.19;77.87;102438.00;5092451;28;20519;-65
2022/03/15 07:19:53;;;;;;;22.25;12.35;;;;;;;8.04;74.00;102436.06;5091272;28;20447;-65
2022/03/15 07:22:20;;;;;;;26.02;13.00;;;;;;;8.14;73.73;102432.41;5092155;28;20040;-66
2022/03/15 07:24:47;;;;;;;25.48;13.15;;;;;;;8.16;74.33;102436.75;5091703;28;20192;-66
2022/03/15 07:27:13;;;;;;;22.20;11.85;;;;;;;8.33;73.60;102439.13;5107185;28;20506;-66
2022/03/15 07:29:41;;;;;;;24.63;12.02;;;;;;;8.58;71.52;102430.00;5111360;27;20097;-66
2022/03/15 07:32:08;;;;;;;23.70;11.68;;;;;;;8.10;73.43;102443.78;5109893;28;20079;-66
2022/03/15 07:34:34;;;;;;;22.42;12.65;;;;;;;7.93;74.51;102437.94;5112376;28;20100;-65
2022/03/15 07:37:01;;;;;;;20.05;11.30;;;;;;;8.19;74.77;102444.53;5112396;28;20043;-66
2022/03/15 07:39:27;;;;;;;22.33;12.05;;;;;;;8.41;75.81;102432.03;5110788;28;20071;-66
2022/03/15 07:41:54;;;;;;;21.95;11.95;;;;;;;8.57;75.03;102436.09;5111360;27;20127;-66
2022/03/15 07:44:21;;;;;;;20.60;12.13;;;;;;;8.63;74.39;102422.94;5111771;27;20514;-65
2022/03/15 07:46:50;;;;;;;19.67;11.40;;;;;;;8.79;74.15;102429.63;5111702;27;20085;-66
2022/03/15 07:49:17;;;;;;;20.08;12.38;;;;;;;9.18;74.02;102419.34;5110481;27;20071;-66
2022/03/15 07:51:45;;;;;;;21.15;12.00;;;;;;;9.27;73.27;102406.91;5111507;28;20046;-66
2022/03/15 07:54:11;;;;;;;23.90;11.95;;;;;;;9.46;71.97;102414.44;5110110;28;20058;-66
2022/03/15 07:56:38;;;;;;;21.13;12.13;;;;;;;9.41;73.13;102419.75;5092342;28;20043;-66
2022/03/15 07:59:04;;;;;;;22.15;12.77;;;;;;;9.51;73.03;102413.44;5106742;27;20097;-66
2022/03/15 08:01:30;;;;;;;19.23;12.18;;;;;;;9.65;72.67;102411.38;5108757;28;20075;-66
2022/03/15 08:03:58;;;;;;;20.58;12.18;;;;;;;9.80;72.58;102407.56;5107568;27;20548;-66
2022/03/15 08:06:25;;;;;;;21.75;12.23;;;;;;;9.92;71.88;102403.81;5109245;28;20044;-66
2022/03/15 08:08:53;;;;;;;21.48;12.20;;;;;;;9.93;71.92;102405.53;5107613;28;20047;-66
2022/03/15 08:11:20;;;;;;;19.80;12.07;;;;;;;9.91;71.74;102399.47;5107915;28;20503;-66
2022/03/15 08:13:46;;;;;;;21.00;12.27;;;;;;;9.10;73.30;102410.75;5107748;28;20070;-66
2022/03/15 08:16:13;;;;;;;19.13;11.52;;;;;;;10.53;68.41;102395.41;5108751;28;20064;-66
2022/03/15 08:18:39;;;;;;;20.80;11.35;;;;;;;10.20;70.23;102404.91;5093715;28;20499;-67
2022/03/15 08:21:07;;;;;;;19.65;11.68;;;;;;;10.08;71.38;102402.56;5107653;27;20066;-66
2022/03/15 08:23:34;;;;;;;20.95;11.70;;;;;;;10.42;69.08;102393.00;5107934;27;20047;-66
2022/03/15 08:26:00;;;;;;;19.23;11.90;;;;;;;9.85;72.96;102392.59;5109515;28;20097;-66
2022/03/15 08:28:26;;;;;;;23.23;12.27;;;;;;;9.60;72.54;102400.16;5106029;28;20102;-66
2022/03/15 08:30:54;;;;;;;20.98;12.20;;;;;;;9.28;75.42;102397.31;5107398;28;20623;-66
2022/03/15 08:33:20;;;;;;;20.67;12.63;;;;;;;10.31;72.47;102394.19;5107470;28;20514;-66
2022/03/15 08:35:47;;;;;;;19.33;12.32;;;;;;;10.62;69.79;102385.50;5107867;27;20043;-66
2022/03/15 08:38:15;;;;;;;20.77;12.57;;;;;;;10.43;70.63;102386.88;5108052;28;20047;-66
2022/03/15 08:40:41;;;;;;;20.92;13.02;;;;;;;10.94;69.02;102386.44;5107563;28;20071;-66
2022/03/15 08:43:08;;;;;;;23.08;12.65;;;;;;;10.83;69.67;102388.50;5107559;27;20100;-66
2022/03/15 08:45:35;;;;;;;25.35;12.73;;;;;;;9.94;71.80;102399.41;5105728;27;20075;-66
2022/03/15 08:48:01;;;;;;;20.63;12.30;;;;;;;10.04;72.59;102393.91;5100747;28;20075;-66
2022/03/15 08:50:28;;;;;;;25.58;13.18;;;;;;;10.33;72.35;102401.13;5107206;28;20067;-67
2022/03/15 08:52:55;;;;;;;22.55;13.02;;;;;;;10.79;70.11;102389.47;5107740;28;20365;-66
2022/03/15 08:55:23;;;;;;;23.38;13.65;;;;;;;9.91;73.86;102404.69;5106694;28;20035;-66
2022/03/15 08:57:50;;;;;;;25.83;13.90;;;;;;;9.11;76.50;102402.03;5108300;27;20793;-66
2022/03/15 09:00:17;;;;;;;24.40;14.02;;;;;;;9.32;77.59;102395.50;5107044;28;20051;-65
2022/03/15 09:02:44;;;;;;;23.08;13.32;;;;;;;9.79;75.69;102401.44;5107382;27;20068;-65
2022/03/15 09:05:11;;;;;;;23.35;13.50;;;;;;;9.84;77.30;102395.25;5106281;28;20048;-64
2022/03/15 09:07:38;;;;;;;23.08;13.70;;;;;;;9.21;77.67;102398.34;5107465;28;20047;-64
2022/03/15 09:10:05;;;;;;;24.52;13.50;;;;;;;9.11;78.70;102391.56;5103327;27;20047;-65
2022/03/15 09:12:34;;;;;;;22.10;12.82;;;;;;;9.43;78.80;102394.38;5105488;28;20097;-65
2022/03/15 09:15:00;;;;;;;23.65;12.95;;;;;;;10.43;76.38;102392.13;5107479;28;20043;-65
2022/03/15 09:17:26;;;;;;;21.27;12.82;;;;;;;10.99;73.65;102384.53;5108175;28;20052;-65
2022/03/15 09:19:55;;;;;;;19.63;12.10;;;;;;;11.18;71.24;102391.88;5106637;28;20097;-65
2022/03/15 09:22:21;;;;;;;22.45;13.18;;;;;;;10.43;74.68;102386.00;5107565;28;20407;-66
2022/03/15 09:24:48;;;;;;;20.58;12.77;;;;;;;11.23;72.99;102391.75;5105093;28;20073;-66
2022/03/15 09:27:14;;;;;;;20.75;12.27;;;;;;;10.70;73.41;102386.19;5108999;27;20047;-67
2022/03/15 09:29:42;;;;;;;20.05;12.55;;;;;;;9.57;77.59;102389.72;5107769;28;20047;-67
2022/03/15 09:32:10;;;;;;;22.70;12.98;;;;;;;9.82;77.94;102383.97;5109132;28;20070;-67
2022/03/15 09:34:37;;;;;;;24.48;12.80;;;;;;;10.69;74.45;102381.84;5108008;27;20050;-67
2022/03/15 09:37:05;;;;;;;27.13;13.27;;;;;;;10.41;74.44;102370.34;5109462;28;20415;-67
2022/03/15 09:39:32;;;;;;;20.30;12.40;;;;;;;10.77;73.14;102375.50;5100029;28;20039;-67
2022/03/15 09:42:00;;;;;;;25.27;13.05;;;;;;;10.80;73.82;102367.56;5109533;28;20085;-67
2022/03/15 09:44:30;;;;;;;24.35;13.45;;;;;;;11.42;73.24;102364.03;5109232;28;20515;-67
2022/03/15 09:47:02;;;;;;;19.92;11.98;;;;;;;11.81;68.79;102359.38;5105934;28;20043;-67
2022/03/15 09:49:29;;;;;;;20.52;12.50;;;;;;;12.27;70.35;102342.97;5107810;28;20047;-65
2022/03/15 09:51:57;;;;;;;20.60;12.35;;;;;;;12.50;69.89;102343.06;5104327;28;20067;-65
2022/03/15 09:54:25;;;;;;;21.92;12.65;;;;;;;12.79;67.79;102339.41;5108870;28;20120;-66
2022/03/15 09:56:53;;;;;;;23.23;12.98;;;;;;;13.10;67.43;102334.81;5109754;28;20044;-65
2022/03/15 09:59:21;;;;;;;20.80;13.30;;;;;;;12.95;67.64;102329.19;5108619;28;20092;-65
2022/03/15 10:01:50;;;;;;;22.33;13.07;;;;;;;13.02;66.02;102325.44;5109250;28;20092;-65
2022/03/15 10:04:18;;;;;;;22.00;13.48;;;;;;;13.16;67.39;102329.31;5105104;28;20049;-66
2022/03/15 10:06:45;;;;;;;23.70;13.98;;;;;;;12.57;67.18;102326.16;5108955;28;20050;-66
2022/03/15 10:09:12;;;;;;;22.50;13.77;;;;;;;12.12;68.58;102317.22;5108440;28;20048;-66
2022/03/15 10:11:39;;;;;;;24.52;13.57;;;;;;;12.63;68.55;102323.31;5108537;28;20116;-66
2022/03/15 10:14:06;;;;;;;23.17;13.10;;;;;;;12.21;67.20;102316.88;5109021;28;20051;-65
2022/03/15 10:16:35;;;;;;;23.15;12.45;;;;;;;11.92;68.57;102311.72;5108779;28;20067;-66
2022/03/15 10:19:03;;;;;;;25.83;13.90;;;;;;;11.18;72.44;102318.34;5100764;28;20047;-66
2022/03/15 10:21:40;;;;;;;24.33;13.05;;;;;;;11.92;72.50;102307.34;5082998;28;20095;-66
2022/03/15 10:24:08;;;;;;;27.52;14.40;;;;;;;12.65;69.54;102303.06;5088543;28;20143;-66
2022/03/15 10:26:38;;;;;;;27.42;14.88;;;;;;;12.76;68.82;102299.19;5078118;28;20096;-66
2022/03/15 10:29:04;;;;;;;22.33;13.00;;;;;;;11.34;72.46;102303.03;5080658;28;20062;-67
2022/03/15 10:31:31;;;;;;;25.13;14.48;;;;;;;11.85;71.66;102292.69;5112990;28;20055;-67
2022/03/15 10:34:00;;;;;;;25.45;14.15;;;;;;;11.45;71.80;102298.31;5111712;27;20059;-66
2022/03/15 10:36:28;;;;;;;25.08;13.88;;;;;;;11.64;73.56;102291.53;5112159;27;20123;-66
2022/03/15 10:39:00;;;;;;;26.45;14.80;;;;;;;12.50;72.72;102292.22;5096096;27;20040;-66
2022/03/15 10:41:26;;;;;;;24.27;13.98;;;;;;;13.11;68.53;102285.63;5109667;27;20488;-66
2022/03/15 10:43:54;;;;;;;21.73;14.35;;;;;;;13.25;68.94;102270.16;5112482;27;20068;-66
2022/03/15 10:46:23;;;;;;;21.52;13.35;;;;;;;13.03;71.59;102271.84;5110789;28;20414;-66
2022/03/15 10:48:53;;;;;;;21.50;13.20;;;;;;;12.50;69.94;102266.78;5112422;27;20062;-66
2022/03/15 10:51:21;;;;;;;27.25;14.13;;;;;;;13.37;68.15;102268.81;5112031;27;20081;-66
2022/03/15 10:53:48;;;;;;;20.38;13.02;;;;;;;13.04;67.00;102278.84;5112756;27;20044;-66
2022/03/15 10:56:19;;;;;;;24.17;13.98;;;;;;;12.94;65.63;102269.56;5112250;28;20054;-67
2022/03/15 10:58:48;;;;;;;28.65;14.60;;;;;;;13.04;67.53;102261.25;5111685;28;20500;-67
2022/03/15 11:01:17;;;;;;;26.00;14.70;;;;;;;13.92;64.04;102260.41;5108461;27;20392;-67
2022/03/15 11:03:53;;;;;;;23.33;14.48;;;;;;;13.66;64.73;102255.34;5111867;27;20307;-67
2022/03/15 11:06:31;;;;;;;21.05;13.13;;;;;;;14.27;63.85;102255.41;5112718;28;20043;-66
2022/03/15 11:08:58;;;;;;;22.98;13.88;;;;;;;14.26;62.55;102249.31;5093665;28;20519;-66
2022/03/15 11:11:27;;;;;;;25.38;14.45;;;;;;;14.35;63.66;102243.66;5111634;28;20052;-66
2022/03/15 11:13:59;;;;;;;24.77;13.45;;;;;;;13.70;64.50;102235.00;5111795;27;20042;-66
2022/03/15 11:16:26;;;;;;;20.75;13.98;;;;;;;12.64;67.46;102239.94;5109821;28;25381;-66
2022/03/15 11:18:54;;;;;;;26.40;14.73;;;;;;;12.92;68.04;102235.41;5108732;28;20098;-66